Time;durP1;ratioP1;P1;durP2;ratioP2;P2;SDS_P1;SDS_P2;PMS_P1;PMS_P2;Temp;Humidity;BMP_temperature;BMP_pressure;BME280_temperature;BME280_humidity;BME280_pressure;Samples;Min_cycle;Max_cycle;Signal;HPM_P1;HPM_P2
2023/05/31 00:00:17;;;;;;;10.75;3.90;;;;;;;-143.48;89.73;118439.88;5018323;28;20045;-75
2023/05/31 00:02:43;;;;;;;11.40;3.75;;;;;;;-143.48;89.73;118439.88;5036573;28;20147;-76
2023/05/31 00:05:09;;;;;;;9.55;4.00;;;;;;;-143.48;90.17;118439.88;5018241;28;20029;-75
2023/05/31 00:07:34;;;;;;;6.68;3.45;;;;;;;-143.48;90.77;118439.88;5018176;28;20021;-75
2023/05/31 00:10:00;;;;;;;9.55;3.78;;;;;;;-143.48;90.53;118439.88;5018332;28;20349;-75
2023/05/31 00:12:25;;;;;;;7.57;4.00;;;;;;;-143.48;90.56;118439.88;5018525;28;20032;-76
2023/05/31 00:14:50;;;;;;;9.30;4.05;;;;;;;-143.48;90.00;118439.88;5017996;28;20021;-75
2023/05/31 00:17:16;;;;;;;7.80;3.70;;;;;;;-143.48;90.53;118439.88;5036046;28;20104;-75
2023/05/31 00:19:41;;;;;;;9.07;3.67;;;;;;;-143.48;90.52;118439.88;5036175;28;20029;-75
2023/05/31 00:22:06;;;;;;;8.70;3.78;;;;;;;-143.48;90.56;118439.88;5035992;28;20025;-76
2023/05/31 00:24:31;;;;;;;9.50;3.90;;;;;;;-143.48;90.43;118439.88;5035487;28;20155;-75
2023/05/31 00:26:57;;;;;;;10.23;4.45;;;;;;;-143.48;91.59;118439.88;5035603;28;20044;-75
2023/05/31 00:29:22;;;;;;;8.95;3.95;;;;;;;-143.48;91.83;118439.88;5035809;28;20036;-76
2023/05/31 00:31:48;;;;;;;8.15;4.15;;;;;;;-143.48;91.44;118439.88;5035545;28;20021;-76
2023/05/31 00:34:13;;;;;;;7.88;3.95;;;;;;;-143.48;91.22;118439.88;5035613;28;20109;-76
2023/05/31 00:36:38;;;;;;;8.77;3.95;;;;;;;-143.48;91.83;118439.88;5035931;28;20365;-76
2023/05/31 00:39:04;;;;;;;7.35;3.78;;;;;;;-143.48;91.75;118439.88;5035767;28;20029;-76
2023/05/31 00:41:29;;;;;;;10.15;4.30;;;;;;;-143.48;91.41;118439.88;5017897;28;20025;-76
2023/05/31 00:43:55;;;;;;;8.02;3.67;;;;;;;-143.48;91.89;118439.88;5035315;28;20057;-76
2023/05/31 00:46:40;;;;;;;9.18;3.92;;;;;;;-143.48;92.12;118439.88;5035329;28;20024;-76
2023/05/31 00:49:06;;;;;;;8.45;4.00;;;;;;;-143.48;92.07;118439.88;5035104;28;20033;-76
2023/05/31 00:51:31;;;;;;;7.57;4.10;;;;;;;-143.48;92.21;118439.88;5035365;28;20528;-76
2023/05/31 00:53:58;;;;;;;9.80;4.30;;;;;;;-143.48;92.74;118439.88;5034886;28;20124;-76
2023/05/31 00:56:24;;;;;;;10.60;4.70;;;;;;;-143.48;92.30;118439.88;5016983;28;20052;-76
2023/05/31 00:58:52;;;;;;;8.07;4.22;;;;;;;-143.48;93.04;118439.88;5035043;28;20025;-76
2023/05/31 01:01:18;;;;;;;8.00;4.38;;;;;;;-143.48;92.41;118439.88;5017268;28;20060;-76
2023/05/31 01:03:43;;;;;;;9.88;4.07;;;;;;;-143.48;92.63;118439.88;5035150;28;20022;-76
2023/05/31 01:06:09;;;;;;;7.90;3.88;;;;;;;-143.48;93.09;118439.88;5035159;28;20056;-76
2023/05/31 01:08:36;;;;;;;9.88;4.20;;;;;;;-143.48;92.60;118439.88;5034977;28;20083;-76
2023/05/31 01:11:43;;;;;;;8.38;4.30;;;;;;;-143.48;92.96;118439.88;5034884;28;20398;-76
2023/05/31 01:14:15;;;;;;;8.05;3.90;;;;;;;-143.48;93.20;118439.88;5017000;28;20040;-76
2023/05/31 01:17:13;;;;;;;8.95;4.18;;;;;;;-143.48;92.29;118439.88;5017017;28;20025;-76
2023/05/31 01:19:48;;;;;;;9.25;4.07;;;;;;;-143.48;93.22;118439.88;5033229;28;20037;-76
2023/05/31 01:22:33;;;;;;;7.22;4.03;;;;;;;-143.48;93.85;118439.88;5017340;28;20025;-76
2023/05/31 01:25:01;;;;;;;9.20;4.05;;;;;;;-143.48;93.69;118439.88;5035012;28;20029;-75
2023/05/31 01:27:27;;;;;;;9.27;4.25;;;;;;;-143.48;94.09;118439.88;5016295;28;20393;-76
2023/05/31 01:29:55;;;;;;;8.02;3.90;;;;;;;-143.48;93.50;118439.88;5034370;28;20029;-75
2023/05/31 01:32:21;;;;;;;9.30;4.28;;;;;;;-143.48;94.41;118439.88;5016790;28;20049;-76
2023/05/31 01:34:49;;;;;;;9.52;3.88;;;;;;;-143.48;94.65;118439.88;5016950;28;20373;-76
2023/05/31 01:37:14;;;;;;;7.95;4.00;;;;;;;-143.48;94.23;118439.88;5034503;28;20104;-76
2023/05/31 01:39:39;;;;;;;11.55;4.80;;;;;;;-143.48;93.94;118439.88;5034638;28;20025;-75
2023/05/31 01:42:06;;;;;;;11.75;4.13;;;;;;;-143.48;93.52;118439.88;5016785;28;20025;-76
2023/05/31 01:44:33;;;;;;;7.95;4.20;;;;;;;-143.48;94.63;118439.88;5034618;28;20030;-76
2023/05/31 01:46:58;;;;;;;10.23;4.20;;;;;;;-143.48;94.70;118439.88;5033963;28;20107;-76
2023/05/31 01:49:25;;;;;;;8.25;4.20;;;;;;;-143.48;94.62;118439.88;5033959;28;20100;-75
2023/05/31 01:51:50;;;;;;;8.80;4.40;;;;;;;-143.48;95.80;118439.88;5016537;28;20025;-75
2023/05/31 01:54:16;;;;;;;10.30;4.40;;;;;;;-143.48;95.52;118439.88;5034363;28;20152;-76
2023/05/31 01:56:42;;;;;;;10.68;4.50;;;;;;;-143.48;94.96;118439.88;5016087;28;20406;-76
2023/05/31 01:59:08;;;;;;;9.32;4.38;;;;;;;-143.48;95.51;118439.88;5034303;28;20033;-75
2023/05/31 02:01:35;;;;;;;8.90;4.70;;;;;;;-143.48;94.98;118439.88;5033897;28;20057;-76
2023/05/31 02:04:01;;;;;;;10.95;4.45;;;;;;;-143.48;94.76;118439.88;5016318;28;20028;-76
2023/05/31 02:06:27;;;;;;;7.63;3.83;;;;;;;-143.48;95.54;118439.88;5034345;28;20030;-75
2023/05/31 02:08:53;;;;;;;10.45;4.10;;;;;;;-143.48;95.29;118439.88;5015972;28;20480;-75
2023/05/31 02:11:19;;;;;;;10.40;4.40;;;;;;;-143.48;96.02;118439.88;5033849;28;20026;-75
2023/05/31 02:13:44;;;;;;;7.90;3.72;;;;;;;-143.48;95.85;118439.88;5033854;28;20028;-76
2023/05/31 02:16:09;;;;;;;8.63;4.35;;;;;;;-143.48;95.45;118439.88;5015957;28;20079;-76
2023/05/31 02:18:35;;;;;;;12.02;4.40;;;;;;;-143.48;95.80;118439.88;5033973;28;20030;-76
2023/05/31 02:21:01;;;;;;;8.70;4.22;;;;;;;-143.48;96.34;118439.88;5015559;28;20022;-76
2023/05/31 02:23:26;;;;;;;11.90;4.30;;;;;;;-143.48;95.92;118439.88;5033483;28;20033;-75
2023/05/31 02:25:52;;;;;;;8.93;4.65;;;;;;;-143.48;96.11;118439.88;5015924;28;20033;-76
2023/05/31 02:28:17;;;;;;;6.72;4.30;;;;;;;-143.48;96.19;118439.88;5033715;28;20443;-76
2023/05/31 02:30:59;;;;;;;9.15;4.40;;;;;;;-143.48;96.02;118439.88;5033619;28;20111;-76
2023/05/31 02:33:25;;;;;;;10.27;4.22;;;;;;;-143.48;96.30;118439.88;5033674;28;20144;-76
2023/05/31 02:35:51;;;;;;;12.60;4.50;;;;;;;-143.48;96.81;118439.88;5033552;28;20492;-76
2023/05/31 02:38:20;;;;;;;13.82;5.05;;;;;;;-143.48;96.40;118439.88;5033603;28;20022;-75
2023/05/31 02:40:45;;;;;;;7.90;4.00;;;;;;;-143.48;96.41;118439.88;5033537;28;20074;-75
2023/05/31 02:43:10;;;;;;;12.38;4.65;;;;;;;-143.48;96.01;118439.88;5016231;28;20029;-76
2023/05/31 02:45:36;;;;;;;10.07;4.60;;;;;;;-143.48;95.89;118439.88;5015573;28;20087;-76
2023/05/31 02:48:04;;;;;;;8.02;4.50;;;;;;;-143.48;96.21;118439.88;5035096;28;20060;-76
2023/05/31 02:50:30;;;;;;;9.70;4.70;;;;;;;-143.48;97.19;118439.88;5003816;28;20060;-76
2023/05/31 02:52:55;;;;;;;8.23;4.35;;;;;;;-143.48;96.87;118439.88;5020302;28;20029;-76
2023/05/31 02:55:21;;;;;;;7.47;4.32;;;;;;;-143.48;97.36;118439.88;5037735;28;20028;-76
2023/05/31 02:57:46;;;;;;;11.57;4.85;;;;;;;-143.48;96.67;118439.88;5037138;28;20515;-76
2023/05/31 03:00:14;;;;;;;9.23;4.50;;;;;;;-143.48;97.21;118439.88;5036995;28;20056;-76
2023/05/31 03:02:40;;;;;;;8.48;4.55;;;;;;;-143.48;96.83;118439.88;5037529;28;20029;-76
2023/05/31 03:05:08;;;;;;;10.10;4.80;;;;;;;-143.48;97.29;118439.88;5019744;28;20021;-76
2023/05/31 03:07:34;;;;;;;11.68;5.25;;;;;;;-143.48;97.31;118439.88;5037356;28;20053;-77
2023/05/31 03:09:59;;;;;;;10.82;4.78;;;;;;;-143.48;96.43;118439.88;5019836;28;20028;-76
2023/05/31 03:12:25;;;;;;;9.68;4.57;;;;;;;-143.48;96.32;118439.88;5037459;28;20029;-76
2023/05/31 03:14:50;;;;;;;8.93;4.80;;;;;;;-143.48;96.68;118439.88;5019548;28;20104;-76
2023/05/31 03:17:15;;;;;;;8.88;4.75;;;;;;;-143.48;97.30;118439.88;5037082;28;20182;-76
2023/05/31 03:19:41;;;;;;;9.98;4.82;;;;;;;-143.48;96.88;118439.88;5037217;28;20476;-76
2023/05/31 03:22:06;;;;;;;10.05;4.43;;;;;;;-143.48;97.38;118439.88;5037353;28;20078;-77
2023/05/31 03:24:31;;;;;;;12.35;4.75;;;;;;;-143.48;96.93;118439.88;5037266;28;20110;-76
2023/05/31 03:26:57;;;;;;;7.72;4.60;;;;;;;-143.48;96.78;118439.88;5036936;28;20029;-76
2023/05/31 03:29:22;;;;;;;11.63;5.15;;;;;;;-143.48;96.70;118439.88;5019392;28;20035;-76
2023/05/31 03:31:47;;;;;;;10.70;4.65;;;;;;;-143.48;96.90;118439.88;5036981;28;20024;-77
2023/05/31 03:34:13;;;;;;;10.20;4.97;;;;;;;-143.48;96.64;118439.88;5037074;28;20022;-76
2023/05/31 03:36:38;;;;;;;9.40;5.10;;;;;;;-143.48;96.77;118439.88;5037135;28;20040;-76
2023/05/31 03:39:03;;;;;;;9.65;4.57;;;;;;;-143.48;97.14;118439.88;5018905;28;20125;-76
2023/05/31 03:41:29;;;;;;;13.30;5.97;;;;;;;-143.48;97.33;118439.88;5018900;28;20029;-76
2023/05/31 03:43:55;;;;;;;10.50;4.70;;;;;;;-143.48;96.86;118439.88;5036536;28;20083;-76
2023/05/31 03:46:20;;;;;;;10.90;4.88;;;;;;;-143.48;97.11;118439.88;5036981;28;20022;-76
2023/05/31 03:48:45;;;;;;;9.45;5.03;;;;;;;-143.48;96.85;118439.88;5036713;28;20029;-76
2023/05/31 03:51:10;;;;;;;11.05;4.95;;;;;;;-143.48;97.20;118439.88;5036303;28;20048;-76
2023/05/31 03:53:36;;;;;;;9.48;4.90;;;;;;;-143.48;97.43;118439.88;5036757;28;20049;-76
2023/05/31 03:56:03;;;;;;;13.82;5.38;;;;;;;-143.48;97.65;118439.88;5036247;28;20106;-77
2023/05/31 03:58:28;;;;;;;11.02;5.25;;;;;;;-143.48;97.68;118439.88;5035732;28;20030;-76
2023/05/31 04:00:54;;;;;;;13.40;6.18;;;;;;;-143.48;97.66;118439.88;5036210;28;20055;-76
2023/05/31 04:03:20;;;;;;;11.05;5.03;;;;;;;-143.48;97.40;118439.88;5036049;28;20083;-76
2023/05/31 04:05:45;;;;;;;9.75;5.35;;;;;;;-143.48;98.04;118439.88;5018588;28;20027;-76
2023/05/31 04:08:11;;;;;;;10.80;5.10;;;;;;;-143.48;97.29;118439.88;5036291;28;20476;-76
2023/05/31 04:10:36;;;;;;;9.98;5.32;;;;;;;-143.48;98.14;118439.88;5036090;28;20023;-76
2023/05/31 04:13:03;;;;;;;10.93;5.43;;;;;;;-143.48;96.51;118439.88;5018526;28;20021;-76
2023/05/31 04:15:29;;;;;;;12.10;5.78;;;;;;;-143.48;96.09;118439.88;5035937;28;20053;-76
2023/05/31 04:17:55;;;;;;;12.70;5.88;;;;;;;-143.48;96.37;118439.88;5018625;28;20461;-76
2023/05/31 04:20:20;;;;;;;13.13;6.18;;;;;;;-143.48;96.23;118439.88;5001893;28;20026;-76
2023/05/31 04:22:46;;;;;;;11.98;5.78;;;;;;;-143.48;97.37;118439.88;5035741;28;20029;-76
2023/05/31 04:25:12;;;;;;;9.55;5.35;;;;;;;-143.48;97.65;118439.88;5018359;28;20056;-76
2023/05/31 04:27:40;;;;;;;12.45;5.90;;;;;;;-143.48;96.36;118439.88;5018368;28;20398;-76
2023/05/31 04:30:08;;;;;;;9.48;6.13;;;;;;;-143.48;96.73;118439.88;5036160;28;20029;-76
2023/05/31 04:32:34;;;;;;;12.27;6.60;;;;;;;-143.48;96.19;118439.88;5035898;28;20056;-76
2023/05/31 04:35:06;;;;;;;14.68;6.18;;;;;;;-143.48;97.01;118439.88;5035999;28;20018;-76
2023/05/31 04:37:32;;;;;;;10.40;5.97;;;;;;;-143.48;96.94;118439.88;5017681;28;20116;-76
2023/05/31 04:39:58;;;;;;;11.02;5.68;;;;;;;-143.48;95.82;118439.88;5017628;28;20509;-76
2023/05/31 04:42:25;;;;;;;11.88;6.13;;;;;;;-143.48;96.24;118439.88;5035840;28;20100;-77
2023/05/31 04:44:57;;;;;;;11.25;5.85;;;;;;;-143.48;95.82;118439.88;5017499;28;20033;-76
2023/05/31 04:47:24;;;;;;;15.32;6.25;;;;;;;-143.48;95.51;118439.88;5035988;28;20112;-76
2023/05/31 04:49:50;;;;;;;11.63;6.03;;;;;;;-143.48;94.69;118439.88;5018044;28;20483;-79
2023/05/31 04:52:16;;;;;;;14.57;5.93;;;;;;;-143.48;93.94;118439.88;5036250;28;20025;-77
2023/05/31 04:54:42;;;;;;;13.60;6.15;;;;;;;-143.48;93.94;118439.88;5017578;28;20428;-75
2023/05/31 04:57:07;;;;;;;15.13;6.60;;;;;;;-143.48;94.90;118439.88;5035004;28;20080;-75
2023/05/31 04:59:32;;;;;;;13.88;6.07;;;;;;;-143.48;94.74;118439.88;5034915;28;20183;-75
2023/05/31 05:01:58;;;;;;;13.95;6.25;;;;;;;-143.48;94.62;118439.88;5034918;28;20048;-75
2023/05/31 05:04:23;;;;;;;15.50;6.88;;;;;;;-143.48;94.73;118439.88;5016968;28;20060;-72
2023/05/31 05:06:48;;;;;;;10.02;5.80;;;;;;;-143.48;93.88;118439.88;5034795;28;20029;-73
2023/05/31 05:09:14;;;;;;;14.80;6.15;;;;;;;-143.48;93.89;118439.88;5034746;28;20026;-73
2023/05/31 05:11:39;;;;;;;13.57;6.15;;;;;;;-143.48;93.57;118439.88;5033758;28;20106;-73
2023/05/31 05:14:04;;;;;;;12.02;5.65;;;;;;;-143.48;91.29;118439.88;5017102;28;20021;-73
2023/05/31 05:16:30;;;;;;;11.90;6.35;;;;;;;-143.48;91.75;118439.88;5034982;28;20100;-75
2023/05/31 05:18:56;;;;;;;15.00;6.60;;;;;;;-143.48;92.68;118439.88;5016849;28;20461;-76
2023/05/31 05:21:21;;;;;;;15.05;6.18;;;;;;;-143.48;92.50;118439.88;5017178;28;20032;-75
2023/05/31 05:23:46;;;;;;;14.95;7.07;;;;;;;-143.48;93.35;118439.88;5034731;28;20021;-76
2023/05/31 05:26:12;;;;;;;13.82;6.57;;;;;;;-143.48;93.38;118439.88;5016935;28;20074;-75
2023/05/31 05:28:38;;;;;;;14.07;6.82;;;;;;;-143.48;92.53;118439.88;5034724;28;20026;-75
2023/05/31 05:31:03;;;;;;;14.02;6.47;;;;;;;-143.48;92.22;118439.88;5034813;28;20026;-75
2023/05/31 05:33:30;;;;;;;18.30;6.82;;;;;;;-143.48;91.98;118439.88;5016864;28;20487;-75
2023/05/31 05:35:55;;;;;;;15.32;6.70;;;;;;;-143.48;90.58;118439.88;5016289;28;20030;-75
2023/05/31 05:38:21;;;;;;;15.82;6.97;;;;;;;-143.48;91.07;118439.88;5016526;28;20361;-75
2023/05/31 05:40:46;;;;;;;14.57;6.72;;;;;;;-143.48;92.13;118439.88;5034335;28;20491;-75
2023/05/31 05:43:11;;;;;;;17.02;7.30;;;;;;;-143.48;90.82;118439.88;5034511;28;20152;-75
2023/05/31 05:45:37;;;;;;;17.20;6.38;;;;;;;-143.48;73.17;118439.88;5033849;28;20456;-75
2023/05/31 05:48:03;;;;;;;15.13;6.60;;;;;;;-143.48;64.57;118439.88;5034063;28;20025;-75
2023/05/31 05:50:28;;;;;;;13.05;6.93;;;;;;;-143.48;66.01;118439.88;5034268;28;20075;-75
2023/05/31 05:52:54;;;;;;;11.98;6.28;;;;;;;-143.48;59.62;118439.88;5016220;28;20040;-75
2023/05/31 05:55:20;;;;;;;12.15;6.22;;;;;;;-143.48;61.94;118439.88;5034042;28;20045;-75
2023/05/31 05:57:45;;;;;;;10.75;5.70;;;;;;;-143.48;53.89;118439.88;5016146;28;20033;-75
2023/05/31 06:00:11;;;;;;;9.88;6.20;;;;;;;-143.48;54.76;118439.88;5016032;28;20132;-75
2023/05/31 06:02:38;;;;;;;11.93;5.80;;;;;;;-143.48;54.41;118439.88;5033602;28;20025;-75
2023/05/31 06:05:04;;;;;;;10.32;5.93;;;;;;;-143.48;51.65;118439.88;5033341;28;20033;-75
2023/05/31 06:07:30;;;;;;;10.90;5.75;;;;;;;-143.48;51.52;118439.88;5016177;28;20404;-75
2023/05/31 06:09:56;;;;;;;10.40;5.45;;;;;;;-143.48;49.80;118439.88;5016060;28;20025;-75
2023/05/31 06:12:21;;;;;;;10.27;5.80;;;;;;;-143.48;50.38;118439.88;5016285;28;20135;-75
2023/05/31 06:14:48;;;;;;;12.52;5.88;;;;;;;-143.48;50.08;118439.88;5033748;28;20021;-75
2023/05/31 06:17:13;;;;;;;13.27;6.03;;;;;;;-143.48;52.83;118439.88;5033640;28;20021;-75
2023/05/31 06:19:38;;;;;;;9.05;5.75;;;;;;;-143.48;50.26;118439.88;5015789;28;20361;-75
2023/05/31 06:22:04;;;;;;;13.00;5.70;;;;;;;-143.48;50.93;118439.88;5015229;28;20021;-75
2023/05/31 06:24:29;;;;;;;10.88;5.90;;;;;;;-143.48;51.42;118439.88;5033009;28;20113;-75
2023/05/31 06:26:55;;;;;;;14.90;6.25;;;;;;;-143.48;54.33;118439.88;5033035;28;20384;-75
2023/05/31 06:29:20;;;;;;;11.48;5.88;;;;;;;-143.48;50.07;118439.88;5015193;28;20032;-75
2023/05/31 06:31:45;;;;;;;11.02;5.60;;;;;;;-143.48;51.36;118439.88;5032839;28;20029;-75
2023/05/31 06:34:11;;;;;;;9.75;5.78;;;;;;;-143.48;52.95;118439.88;5033015;28;20029;-75
2023/05/31 06:36:36;;;;;;;10.77;5.70;;;;;;;-143.48;53.96;118439.88;5033461;28;20457;-74
2023/05/31 06:39:02;;;;;;;13.40;5.80;;;;;;;-143.48;51.90;118439.88;5015837;28;20056;-75
2023/05/31 06:41:29;;;;;;;12.40;5.80;;;;;;;-143.48;50.71;118439.88;5033500;28;20025;-74
2023/05/31 06:43:54;;;;;;;11.93;5.85;;;;;;;-143.48;50.76;118439.88;5015548;28;20025;-75
2023/05/31 06:46:20;;;;;;;10.48;5.72;;;;;;;-143.48;53.34;118439.88;5033466;28;20032;-74
2023/05/31 06:48:45;;;;;;;13.43;6.32;;;;;;;-143.48;54.48;118439.88;5033293;28;20373;-74
2023/05/31 06:51:10;;;;;;;13.30;6.28;;;;;;;-143.48;56.68;118439.88;5033266;28;20093;-74
2023/05/31 06:53:36;;;;;;;14.27;6.10;;;;;;;-143.48;60.10;118439.88;5033574;28;20017;-75
2023/05/31 06:56:02;;;;;;;13.90;5.82;;;;;;;-143.48;62.25;118439.88;5033368;28;20033;-75
2023/05/31 06:58:31;;;;;;;10.65;5.70;;;;;;;-143.48;58.88;118439.88;5033174;28;20036;-75
2023/05/31 07:00:57;;;;;;;9.80;5.50;;;;;;;-143.48;57.47;118439.88;5033189;28;20049;-75
2023/05/31 07:03:22;;;;;;;12.68;5.88;;;;;;;-143.48;57.21;118439.88;5033610;28;20512;-75
2023/05/31 07:05:47;;;;;;;11.45;6.03;;;;;;;-143.48;60.05;118439.88;5015551;28;20029;-75
2023/05/31 07:08:15;;;;;;;10.90;5.78;;;;;;;-143.48;59.15;118439.88;5015580;28;20029;-75
2023/05/31 07:10:40;;;;;;;13.23;5.22;;;;;;;-143.48;56.22;118439.88;5033609;28;20113;-75
2023/05/31 07:13:06;;;;;;;13.38;6.10;;;;;;;-143.48;56.17;118439.88;5033216;28;20104;-75
2023/05/31 07:15:32;;;;;;;12.48;6.30;;;;;;;-143.48;56.86;118439.88;5033096;28;20019;-75
2023/05/31 07:17:57;;;;;;;12.95;6.10;;;;;;;-143.48;57.08;118439.88;5033159;28;20025;-76
2023/05/31 07:20:22;;;;;;;14.25;5.85;;;;;;;-143.48;56.26;118439.88;5033187;28;20033;-74
2023/05/31 07:22:47;;;;;;;15.02;6.10;;;;;;;-143.48;58.23;118439.88;5015417;28;20026;-76
2023/05/31 07:25:13;;;;;;;10.75;6.00;;;;;;;-143.48;55.15;118439.88;5015145;28;20083;-75
2023/05/31 07:27:38;;;;;;;13.60;5.70;;;;;;;-143.48;54.65;118439.88;5033094;28;20029;-76
2023/05/31 07:30:04;;;;;;;9.38;5.57;;;;;;;-143.48;56.82;118439.88;5032989;28;20049;-75
2023/05/31 07:32:29;;;;;;;11.57;6.30;;;;;;;-143.48;58.67;118439.88;5033231;28;20449;-75
2023/05/31 07:34:55;;;;;;;13.93;6.32;;;;;;;-143.48;55.85;118439.88;5017792;28;20107;-76
2023/05/31 07:37:20;;;;;;;13.32;6.03;;;;;;;-143.48;56.11;118439.88;5037039;28;20021;-76
2023/05/31 07:39:45;;;;;;;14.95;5.70;;;;;;;-143.48;55.72;118439.88;5019041;28;20461;-76
2023/05/31 07:42:12;;;;;;;16.27;5.55;;;;;;;-143.48;57.09;118439.88;5018895;28;20036;-76
2023/05/31 07:44:38;;;;;;;13.00;5.78;;;;;;;-143.48;59.10;118439.88;5018625;28;20075;-76
2023/05/31 07:47:03;;;;;;;14.13;5.57;;;;;;;-143.48;55.53;118439.88;5036451;28;20480;-76
2023/05/31 07:49:28;;;;;;;12.25;5.63;;;;;;;-143.48;53.63;118439.88;5036420;28;20072;-76
2023/05/31 07:51:54;;;;;;;11.40;5.55;;;;;;;-143.48;50.84;118439.88;5018716;28;20028;-76
2023/05/31 07:54:19;;;;;;;12.70;5.10;;;;;;;-143.48;52.66;118439.88;5036518;28;20052;-76
2023/05/31 07:56:46;;;;;;;12.52;5.88;;;;;;;-143.48;51.49;118439.88;5018871;28;20025;-76
2023/05/31 07:59:11;;;;;;;14.20;5.60;;;;;;;-143.48;53.03;118439.88;5036420;28;20031;-76
2023/05/31 08:01:38;;;;;;;17.65;5.57;;;;;;;-143.48;53.43;118439.88;5036219;28;20442;-76
2023/05/31 08:04:08;;;;;;;15.63;5.63;;;;;;;-143.48;51.28;118439.88;5036311;28;20389;-76
2023/05/31 08:06:34;;;;;;;12.25;5.05;;;;;;;-143.48;51.14;118439.88;5018405;28;20461;-76
2023/05/31 08:09:00;;;;;;;14.30;5.30;;;;;;;-143.48;48.30;118439.88;5035959;28;20036;-76
2023/05/31 08:11:26;;;;;;;11.60;5.50;;;;;;;-143.48;51.21;118439.88;5018478;28;20021;-76
2023/05/31 08:13:51;;;;;;;13.73;5.20;;;;;;;-143.48;52.50;118439.88;5035689;28;20109;-76
2023/05/31 08:16:17;;;;;;;11.55;4.80;;;;;;;-143.48;49.90;118439.88;5018419;28;20033;-76
2023/05/31 08:18:43;;;;;;;11.38;4.75;;;;;;;-143.48;49.36;118439.88;5035980;28;20029;-76
2023/05/31 08:21:08;;;;;;;11.80;4.80;;;;;;;-143.48;48.15;118439.88;5036115;28;20026;-76
2023/05/31 08:23:34;;;;;;;14.07;5.07;;;;;;;-143.48;47.87;118439.88;5017774;28;20021;-74
2023/05/31 08:25:59;;;;;;;13.35;5.25;;;;;;;-143.48;48.37;118439.88;5035924;28;20035;-75
2023/05/31 08:28:24;;;;;;;10.73;5.00;;;;;;;-143.48;48.30;118439.88;5035845;28;20021;-76
2023/05/31 08:30:50;;;;;;;10.95;5.20;;;;;;;-143.48;48.72;118439.88;5035754;28;20461;-75
2023/05/31 08:33:15;;;;;;;10.45;5.15;;;;;;;-143.48;49.44;118439.88;5017993;28;20167;-75
2023/05/31 08:35:41;;;;;;;8.93;5.00;;;;;;;-143.48;52.08;118439.88;5035392;28;20013;-76
2023/05/31 08:38:06;;;;;;;13.30;5.40;;;;;;;-143.48;48.58;118439.88;5017764;28;20108;-77
2023/05/31 08:40:32;;;;;;;11.90;5.20;;;;;;;-143.48;51.04;118439.88;5017924;28;20032;-76
2023/05/31 08:43:02;;;;;;;11.45;4.97;;;;;;;-143.48;50.34;118439.88;5018457;28;20025;-76
2023/05/31 08:45:37;;;;;;;14.43;5.22;;;;;;;-143.48;48.29;118439.88;5018169;28;20397;-78
2023/05/31 08:48:10;;;;;;;11.45;4.57;;;;;;;-143.48;46.32;118439.88;5018566;28;20068;-77
2023/05/31 08:50:36;;;;;;;9.88;5.25;;;;;;;-143.48;45.89;118439.88;5017635;28;20025;-76
2023/05/31 08:53:02;;;;;;;7.60;4.82;;;;;;;-143.48;46.39;118439.88;5035095;28;20038;-77
2023/05/31 08:55:29;;;;;;;12.07;5.10;;;;;;;-143.48;48.09;118439.88;5017638;28;20017;-76
2023/05/31 08:57:56;;;;;;;9.80;4.50;;;;;;;-143.48;47.54;118439.88;5035367;28;20026;-75
2023/05/31 09:00:22;;;;;;;11.15;5.05;;;;;;;-143.48;47.77;118439.88;5016785;28;20049;-75
2023/05/31 09:02:50;;;;;;;9.48;4.47;;;;;;;-143.48;47.35;118439.88;5034896;28;20602;-76
2023/05/31 09:05:16;;;;;;;11.45;4.93;;;;;;;-143.48;45.42;118439.88;5035064;28;20029;-77
2023/05/31 09:07:41;;;;;;;12.55;5.38;;;;;;;-143.48;47.14;118439.88;5035129;28;20528;-76
2023/05/31 09:10:08;;;;;;;11.93;4.80;;;;;;;-143.48;46.75;118439.88;5016756;28;20071;-76
2023/05/31 09:12:35;;;;;;;12.05;4.85;;;;;;;-143.48;44.23;118439.88;5017215;28;20163;-77
2023/05/31 09:15:00;;;;;;;11.52;4.78;;;;;;;-143.48;45.06;118439.88;5034545;28;20017;-77
2023/05/31 09:17:26;;;;;;;11.23;4.57;;;;;;;-143.48;46.41;118439.88;5033765;28;20480;-77
2023/05/31 09:19:55;;;;;;;10.38;5.25;;;;;;;-143.48;43.81;118439.88;5033834;28;20373;-77
2023/05/31 09:22:23;;;;;;;16.17;4.50;;;;;;;-143.48;44.66;118439.88;5034743;28;20025;-77
2023/05/31 09:25:00;;;;;;;9.10;4.55;;;;;;;-143.48;45.08;118439.88;5034388;28;20048;-77
2023/05/31 09:27:33;;;;;;;10.52;4.40;;;;;;;-143.48;45.30;118439.88;5016950;28;20052;-77
2023/05/31 09:30:03;;;;;;;16.08;5.13;;;;;;;-143.48;45.35;118439.88;5034824;28;20530;-75
2023/05/31 09:32:29;;;;;;;14.48;5.32;;;;;;;-143.48;45.40;118439.88;5016845;28;20017;-76
2023/05/31 09:35:09;;;;;;;11.50;4.80;;;;;;;-143.48;44.90;118439.88;5034283;28;20028;-75
2023/05/31 09:37:45;;;;;;;11.45;5.05;;;;;;;-143.48;43.72;118439.88;5034790;28;20021;-75
2023/05/31 09:40:32;;;;;;;10.88;4.57;;;;;;;-143.48;44.00;118439.88;5015526;28;20029;-76
2023/05/31 09:42:58;;;;;;;8.80;4.70;;;;;;;-143.48;44.35;118439.88;5014921;28;20493;-76
2023/05/31 09:45:23;;;;;;;8.00;4.18;;;;;;;-143.48;44.48;118439.88;5016848;28;20044;-76
2023/05/31 09:47:49;;;;;;;10.60;4.93;;;;;;;-143.48;44.36;118439.88;5034620;28;20423;-78
2023/05/31 09:50:22;;;;;;;12.52;5.47;;;;;;;-143.48;46.64;118439.88;5015056;28;20044;-76
2023/05/31 09:52:51;;;;;;;12.43;4.78;;;;;;;-143.48;46.20;118439.88;5014512;28;20021;-76
2023/05/31 09:55:17;;;;;;;15.02;4.30;;;;;;;-143.48;45.25;118439.88;5032974;28;20056;-76
2023/05/31 09:57:45;;;;;;;8.18;4.22;;;;;;;-143.48;43.77;118439.88;5032142;28;20053;-76
2023/05/31 10:00:18;;;;;;;11.80;4.78;;;;;;;-143.48;46.28;118439.88;5032684;28;20069;-74
2023/05/31 10:02:45;;;;;;;10.95;4.28;;;;;;;-143.48;44.12;118439.88;5032798;28;20052;-73
2023/05/31 10:05:12;;;;;;;12.57;4.43;;;;;;;-143.48;43.50;118439.88;5032444;28;20033;-72
2023/05/31 10:07:39;;;;;;;14.02;4.70;;;;;;;-143.48;43.19;118439.88;5015462;28;20435;-73
2023/05/31 10:10:06;;;;;;;12.10;4.60;;;;;;;-143.48;43.71;118439.88;5033374;28;20052;-72
2023/05/31 10:12:40;;;;;;;16.83;4.68;;;;;;;-143.48;42.75;118439.88;5032437;28;20112;-72
2023/05/31 10:15:10;;;;;;;12.82;3.97;;;;;;;-143.48;41.85;118439.88;5032313;28;20044;-73
2023/05/31 10:18:05;;;;;;;13.68;5.22;;;;;;;-143.48;42.70;118439.88;5032492;28;20029;-73
2023/05/31 10:20:48;;;;;;;13.02;5.00;;;;;;;-143.48;43.21;118439.88;5032342;28;20068;-72
2023/05/31 10:23:22;;;;;;;12.30;4.90;;;;;;;-143.48;45.38;118439.88;5032643;28;20025;-72
2023/05/31 10:26:09;;;;;;;10.10;4.40;;;;;;;-143.48;44.18;118439.88;5032703;28;20030;-72
2023/05/31 10:29:01;;;;;;;13.35;4.20;;;;;;;-143.48;42.92;118439.88;5033958;28;20108;-72
2023/05/31 10:31:34;;;;;;;12.18;4.70;;;;;;;-143.48;43.19;118439.88;5033157;28;20585;-73
2023/05/31 10:34:14;;;;;;;11.85;4.78;;;;;;;-143.48;43.00;118439.88;5033094;28;20457;-73
2023/05/31 10:36:39;;;;;;;11.18;4.88;;;;;;;-143.48;42.31;118439.88;5016029;28;20021;-73
2023/05/31 10:39:37;;;;;;;15.15;4.75;;;;;;;-143.48;42.98;118439.88;5033484;28;20086;-75
2023/05/31 10:42:20;;;;;;;13.75;5.50;;;;;;;-143.48;41.96;118439.88;4986073;28;20432;-74
2023/05/31 10:45:08;;;;;;;;;;;;;;;-143.48;42.88;118439.88;5033861;28;20025;-75
2023/05/31 10:47:40;;;;;;;12.68;5.05;;;;;;;-143.48;42.18;118439.88;5025270;28;19912;-75
2023/05/31 10:50:06;;;;;;;13.32;5.25;;;;;;;-143.48;41.66;118439.88;5015757;28;20029;-74
2023/05/31 10:52:32;;;;;;;9.45;5.25;;;;;;;-143.48;42.92;118439.88;5033466;28;20358;-75
2023/05/31 10:55:18;;;;;;;9.85;4.50;;;;;;;-143.48;42.09;118439.88;5032975;28;20024;-74
2023/05/31 10:57:44;;;;;;;15.02;5.35;;;;;;;-143.48;43.05;118439.88;5032240;28;20500;-74
2023/05/31 11:00:11;;;;;;;9.00;5.05;;;;;;;-143.48;45.89;118439.88;5015497;28;20060;-74
2023/05/31 11:02:46;;;;;;;11.35;4.90;;;;;;;-143.48;44.61;118439.88;5033173;28;20057;-74
2023/05/31 11:05:20;;;;;;;13.25;5.40;;;;;;;-143.48;45.10;118439.88;5031981;28;20017;-74